Time,TemperatureF,DewpointF,PressureIn,WindDirection,WindDirectionDegrees,WindSpeedMPH,WindSpeedGustMPH,Humidity,HourlyPrecipIn,Conditions,Clouds,dailyrainin,SoftwareType,DateUTC
2013-01-28 00:00:00,41.6,32.2,30.42,NE,55,0.0,2.0,69,0.00,,BKN047,0.00,VWS V14.01,2013-01-28 05:00:00,
2013-01-28 00:01:00,41.6,32.2,30.42,NE,56,0.0,2.0,69,0.00,,OVC029,0.00,VWS V14.01,2013-01-28 05:01:00,
2013-01-28 00:02:00,41.6,32.2,30.42,NE,56,0.0,2.0,69,0.00,,SCT045,0.00,VWS V14.01,2013-01-28 05:02:00,
2013-01-28 00:03:00,41.6,32.2,30.42,ENE,57,0.0,2.0,69,0.00,,OVC029,0.00,VWS V14.01,2013-01-28 05:03:00,
2013-01-28 00:04:00,41.6,32.2,30.42,NE,56,0.0,2.0,69,0.00,,SCT045,0.00,VWS V14.01,2013-01-28 05:04:00,
2013-01-28 00:05:00,41.6,32.2,30.42,ENE,65,2.0,2.0,69,0.00,,OVC029,0.00,VWS V14.01,2013-01-28 05:05:00,
2013-01-28 00:06:00,41.6,32.2,30.42,ENE,65,0.0,2.0,69,0.00,,OVC029,0.00,VWS V14.01,2013-01-28 05:06:00,
2013-01-28 00:07:00,41.6,32.2,30.41,ENE,65,1.0,2.0,69,0.00,,OVC029,0.00,VWS V14.01,2013-01-28 05:07:00,
2013-01-28 00:08:00,41.6,32.2,30.41,ENE,65,0.0,2.0,69,0.00,,OVC029,0.00,VWS V14.01,2013-01-28 05:08:00,
2013-01-28 00:09:00,41.6,32.6,30.42,ENE,65,0.0,2.0,70,0.00,,SCT045,0.00,VWS V14.01,2013-01-28 05:09:00,
2013-01-28 00:10:00,41.6,32.6,30.42,ENE,65,0.0,2.0,70,0.00,,OVC029,0.00,VWS V14.01,2013-01-28 05:10:00,
2013-01-28 00:11:00,41.5,32.5,30.41,ENE,65,0.0,2.0,70,0.00,,OVC029,0.00,VWS V14.01,2013-01-28 05:11:00,
2013-01-28 00:12:00,41.5,32.5,30.41,ENE,65,0.0,2.0,70,0.00,,OVC029,0.00,VWS V14.01,2013-01-28 05:12:00,
2013-01-28 00:13:00,41.5,32.1,30.41,ENE,65,0.0,2.0,69,0.00,,OVC029,0.00,VWS V14.01,2013-01-28 05:13:00,
2013-01-28 00:14:00,41.5,32.1,30.41,ENE,57,0.0,2.0,69,0.00,,SCT045,0.00,VWS V14.01,2013-01-28 05:14:00,
2013-01-28 00:15:00,41.5,32.1,30.41,ENE,57,0.0,2.0,69,0.00,,OVC029,0.00,VWS V14.01,2013-01-28 05:15:00,
2013-01-28 00:16:00,41.5,32.1,30.41,NE,53,1.0,2.0,69,0.00,,OVC029,0.00,VWS V14.01,2013-01-28 05:16:00,
2013-01-28 00:17:00,41.5,32.1,30.41,NE,54,1.0,2.0,69,0.00,,OVC029,0.00,VWS V14.01,2013-01-28 05:17:00,
2013-01-28 00:18:00,41.5,32.1,30.41,NE,49,2.0,2.0,69,0.00,,OVC029,0.00,VWS V14.01,2013-01-28 05:18:00,
2013-01-28 00:19:00,41.6,31.8,30.41,NE,49,3.0,3.0,68,0.00,,SCT045,0.00,VWS V14.01,2013-01-28 05:19:00,
2013-01-28 00:20:00,41.6,31.8,30.41,NE,49,1.0,2.0,68,0.00,,OVC029,0.00,VWS V14.01,2013-01-28 05:20:00,
2013-01-28 00:21:00,41.7,31.9,30.41,NE,48,0.0,2.0,68,0.00,,OVC029,0.00,VWS V14.01,2013-01-28 05:21:00,
2013-01-28 00:22:00,41.7,31.9,30.41,NE,48,0.0,2.0,68,0.00,,OVC029,0.00,VWS V14.01,2013-01-28 05:22:00,
2013-01-28 00:23:00,41.8,32.0,30.41,NE,49,0.0,2.0,68,0.00,,OVC029,0.00,VWS V14.01,2013-01-28 05:23:00,
2013-01-28 00:24:00,41.8,32.0,30.41,NE,48,0.0,2.0,68,0.00,,CLR,0.00,VWS V14.01,2013-01-28 05:24:00,
2013-01-28 00:25:00,41.8,32.0,30.41,ENE,59,0.0,2.0,68,0.00,,OVC029,0.00,VWS V14.01,2013-01-28 05:25:00,
2013-01-28 00:26:00,41.8,32.0,30.41,ENE,59,0.0,2.0,68,0.00,,OVC029,0.00,VWS V14.01,2013-01-28 05:26:00,
2013-01-28 00:27:00,41.8,32.0,30.41,ENE,60,0.0,2.0,68,0.00,,OVC029,0.00,VWS V14.01,2013-01-28 05:27:00,
2013-01-28 00:28:00,41.7,31.9,30.41,ENE,58,0.0,2.0,68,0.00,,OVC029,0.00,VWS V14.01,2013-01-28 05:28:00,
2013-01-28 00:29:00,41.8,32.0,30.41,ENE,59,0.0,2.0,68,0.00,,CLR,0.00,VWS V14.01,2013-01-28 05:29:00,
2013-01-28 00:30:00,41.7,31.9,30.41,ENE,60,0.0,2.0,68,0.00,,OVC029,0.00,VWS V14.01,2013-01-28 05:30:00,
2013-01-28 00:31:00,41.7,31.9,30.41,ENE,60,0.0,2.0,68,0.00,,OVC029,0.00,VWS V14.01,2013-01-28 05:31:00,
2013-01-28 00:32:00,41.7,31.9,30.41,ENE,58,0.0,2.0,68,0.00,,OVC029,0.00,VWS V14.01,2013-01-28 05:32:00,
2013-01-28 00:33:00,41.7,31.9,30.41,ENE,58,1.0,2.0,68,0.00,,OVC029,0.00,VWS V14.01,2013-01-28 05:33:00,
2013-01-28 00:34:00,41.6,32.2,30.41,ENE,58,0.0,2.0,69,0.00,,CLR,0.00,VWS V14.01,2013-01-28 05:34:00,
2013-01-28 00:35:00,41.6,32.2,30.41,ENE,58,0.0,2.0,69,0.00,,OVC029,0.00,VWS V14.01,2013-01-28 05:35:00,
2013-01-28 00:36:00,41.6,32.2,30.41,ENE,58,0.0,2.0,69,0.00,,OVC029,0.00,VWS V14.01,2013-01-28 05:36:00,
2013-01-28 00:37:00,41.6,31.8,30.41,ENE,58,0.0,2.0,68,0.00,,OVC029,0.00,VWS V14.01,2013-01-28 05:37:00,
2013-01-28 00:38:00,41.6,31.8,30.41,ENE,58,0.0,2.0,68,0.00,,OVC029,0.00,VWS V14.01,2013-01-28 05:38:00,
2013-01-28 00:39:00,41.5,32.1,30.41,ENE,58,0.0,2.0,69,0.00,,CLR,0.00,VWS V14.01,2013-01-28 05:39:00,
2013-01-28 00:40:00,41.5,32.1,30.41,ENE,58,0.0,2.0,69,0.00,,OVC029,0.00,VWS V14.01,2013-01-28 05:40:00,
2013-01-28 00:41:00,41.5,31.7,30.41,ENE,58,0.0,2.0,68,0.00,,OVC029,0.00,VWS V14.01,2013-01-28 05:41:00,
2013-01-28 00:42:00,41.5,31.7,30.41,ENE,58,0.0,2.0,68,0.00,,OVC029,0.00,VWS V14.01,2013-01-28 05:42:00,
2013-01-28 00:43:00,41.5,31.7,30.41,ENE,58,0.0,2.0,68,0.00,,OVC029,0.00,VWS V14.01,2013-01-28 05:43:00,
2013-01-28 00:44:00,41.5,31.7,30.41,ENE,58,0.0,2.0,68,0.00,,CLR,0.00,VWS V14.01,2013-01-28 05:44:00,
2013-01-28 00:45:00,41.5,31.7,30.42,ENE,58,0.0,2.0,68,0.00,,OVC029,0.00,VWS V14.01,2013-01-28 05:45:00,
2013-01-28 00:46:00,41.5,31.7,30.42,ENE,58,0.0,2.0,68,0.00,,OVC029,0.00,VWS V14.01,2013-01-28 05:46:00,
2013-01-28 00:47:00,41.5,31.7,30.42,ENE,58,0.0,2.0,68,0.00,,OVC029,0.00,VWS V14.01,2013-01-28 05:47:00,
2013-01-28 00:48:00,41.6,31.8,30.42,ENE,58,0.0,2.0,68,0.00,,OVC029,0.00,VWS V14.01,2013-01-28 05:48:00,
2013-01-28 00:49:00,41.5,31.7,30.42,NE,54,0.0,2.0,68,0.00,,CLR,0.00,VWS V14.01,2013-01-28 05:49:00,
2013-01-28 00:50:00,41.6,31.8,30.42,NE,49,0.0,2.0,68,0.00,,OVC029,0.00,VWS V14.01,2013-01-28 05:50:00,
2013-01-28 00:51:00,41.6,31.8,30.42,NE,48,0.0,2.0,68,0.00,,OVC029,0.00,VWS V14.01,2013-01-28 05:51:00,
2013-01-28 00:52:00,41.5,31.7,30.42,NE,48,0.0,2.0,68,0.00,,OVC029,0.00,VWS V14.01,2013-01-28 05:52:00,
2013-01-28 00:53:00,41.5,31.7,30.42,NE,49,1.0,2.0,68,0.00,,OVC029,0.00,VWS V14.01,2013-01-28 05:53:00,
2013-01-28 00:54:00,41.5,31.7,30.42,NE,46,1.0,2.0,68,0.00,,CLR,0.00,VWS V14.01,2013-01-28 05:54:00,
2013-01-28 00:55:00,41.6,31.5,30.42,NE,46,0.0,2.0,67,0.00,,OVC029,0.00,VWS V14.01,2013-01-28 05:55:00,
2013-01-28 00:56:00,41.6,31.5,30.42,NE,46,0.0,2.0,67,0.00,,OVC029,0.00,VWS V14.01,2013-01-28 05:56:00,
2013-01-28 00:57:00,41.6,31.5,30.42,NE,48,1.0,2.0,67,0.00,,OVC029,0.00,VWS V14.01,2013-01-28 05:57:00,
2013-01-28 00:58:00,41.6,31.5,30.42,ENE,61,3.0,3.0,67,0.00,,OVC029,0.00,VWS V14.01,2013-01-28 05:58:00,
2013-01-28 00:59:00,41.6,31.5,30.42,NE,51,1.0,2.0,67,0.00,,CLR,0.00,VWS V14.01,2013-01-28 05:59:00,
2013-01-28 01:00:00,41.6,31.5,30.42,NE,51,1.0,2.0,67,0.00,,OVC029,0.00,VWS V14.01,2013-01-28 06:00:00,
2013-01-28 01:01:00,41.6,31.5,30.42,NE,53,2.0,2.0,67,0.00,,OVC029,0.00,VWS V14.01,2013-01-28 06:01:00,
2013-01-28 01:02:00,41.7,31.6,30.42,NE,46,2.0,2.0,67,0.00,,OVC029,0.00,VWS V14.01,2013-01-28 06:02:00,
2013-01-28 01:03:00,41.7,31.6,30.42,NE,51,1.0,2.0,67,0.00,,OVC029,0.00,VWS V14.01,2013-01-28 06:03:00,
2013-01-28 01:04:00,41.7,31.6,30.42,NE,51,1.0,2.0,67,0.00,,CLR,0.00,VWS V14.01,2013-01-28 06:04:00,
2013-01-28 01:05:00,41.7,31.6,30.42,NE,51,2.0,2.0,67,0.00,,OVC029,0.00,VWS V14.01,2013-01-28 06:05:00,
2013-01-28 01:06:00,41.7,31.6,30.42,NE,51,1.0,2.0,67,0.00,,OVC029,0.00,VWS V14.01,2013-01-28 06:06:00,
2013-01-28 01:07:00,41.7,31.6,30.42,NE,48,1.0,2.0,67,0.00,,OVC029,0.00,VWS V14.01,2013-01-28 06:07:00,
2013-01-28 01:08:00,41.7,31.6,30.42,NE,49,2.0,2.0,67,0.00,,OVC029,0.00,VWS V14.01,2013-01-28 06:08:00,
2013-01-28 01:09:00,41.7,31.6,30.42,NE,49,1.0,2.0,67,0.00,,CLR,0.00,VWS V14.01,2013-01-28 06:09:00,
2013-01-28 01:10:00,41.7,31.6,30.42,NE,48,2.0,2.0,67,0.00,,OVC029,0.00,VWS V14.01,2013-01-28 06:10:00,
2013-01-28 01:11:00,41.7,31.6,30.42,NE,49,2.0,2.0,67,0.00,,OVC029,0.00,VWS V14.01,2013-01-28 06:11:00,
2013-01-28 01:12:00,41.7,31.6,30.42,ENE,68,3.0,3.0,67,0.00,,OVC029,0.00,VWS V14.01,2013-01-28 06:12:00,
2013-01-28 01:13:00,41.7,31.6,30.42,NE,49,0.0,2.0,67,0.00,,OVC029,0.00,VWS V14.01,2013-01-28 06:13:00,
2013-01-28 01:14:00,41.7,31.6,30.42,NE,48,1.0,2.0,67,0.00,,CLR,0.00,VWS V14.01,2013-01-28 06:14:00,
2013-01-28 01:15:00,41.7,31.6,30.42,NE,48,0.0,2.0,67,0.00,,OVC029,0.00,VWS V14.01,2013-01-28 06:15:00,
2013-01-28 01:16:00,41.6,31.5,30.42,NE,49,0.0,2.0,67,0.00,,OVC029,0.00,VWS V14.01,2013-01-28 06:16:00,
2013-01-28 01:17:00,41.6,31.5,30.42,NE,48,1.0,2.0,67,0.00,,OVC029,0.00,VWS V14.01,2013-01-28 06:17:00,
2013-01-28 01:18:00,41.6,31.5,30.42,NE,49,0.0,2.0,67,0.00,,OVC029,0.00,VWS V14.01,2013-01-28 06:18:00,
2013-01-28 01:19:00,41.5,31.4,30.42,NE,51,2.0,2.0,67,0.00,,CLR,0.00,VWS V14.01,2013-01-28 06:19:00,
2013-01-28 01:20:00,41.5,31.4,30.42,NE,51,1.0,2.0,67,0.00,,OVC029,0.00,VWS V14.01,2013-01-28 06:20:00,
2013-01-28 01:21:00,41.4,31.3,30.42,NE,51,1.0,2.0,67,0.00,,OVC029,0.00,VWS V14.01,2013-01-28 06:21:00,
2013-01-28 01:22:00,41.5,31.4,30.42,NE,51,0.0,2.0,67,0.00,,OVC029,0.00,VWS V14.01,2013-01-28 06:22:00,
2013-01-28 01:23:00,41.5,31.4,30.42,NE,51,0.0,2.0,67,0.00,,OVC029,0.00,VWS V14.01,2013-01-28 06:23:00,
2013-01-28 01:24:00,41.4,31.3,30.42,NE,51,0.0,2.0,67,0.00,,SCT031,0.00,VWS V14.01,2013-01-28 06:24:00,
2013-01-28 01:25:00,41.4,31.3,30.42,NE,51,0.0,2.0,67,0.00,,OVC029,0.00,VWS V14.01,2013-01-28 06:25:00,
2013-01-28 01:26:00,41.4,31.6,30.42,NE,51,0.0,2.0,68,0.00,,OVC029,0.00,VWS V14.01,2013-01-28 06:26:00,
2013-01-28 01:27:00,41.4,31.6,30.42,NE,51,0.0,2.0,68,0.00,,OVC029,0.00,VWS V14.01,2013-01-28 06:27:00,
2013-01-28 01:28:00,41.3,31.5,30.42,NE,51,0.0,2.0,68,0.00,,OVC029,0.00,VWS V14.01,2013-01-28 06:28:00,
2013-01-28 01:29:00,41.3,31.2,30.42,NE,55,1.0,2.0,67,0.00,,SCT031,0.00,VWS V14.01,2013-01-28 06:29:00,
2013-01-28 01:30:00,41.3,31.5,30.42,NE,55,2.0,2.0,68,0.00,,OVC029,0.00,VWS V14.01,2013-01-28 06:30:00,
2013-01-28 01:31:00,41.3,31.2,30.42,ENE,60,2.0,2.0,67,0.00,,OVC029,0.00,VWS V14.01,2013-01-28 06:31:00,
2013-01-28 01:32:00,41.3,31.5,30.42,ENE,58,0.0,2.0,68,0.00,,OVC029,0.00,VWS V14.01,2013-01-28 06:32:00,
2013-01-28 01:33:00,41.4,31.6,30.42,ENE,59,2.0,2.0,68,0.00,,OVC029,0.00,VWS V14.01,2013-01-28 06:33:00,
2013-01-28 01:34:00,41.4,31.3,30.42,NE,54,1.0,2.0,67,0.00,,SCT031,0.00,VWS V14.01,2013-01-28 06:34:00,
2013-01-28 01:35:00,41.4,31.3,30.42,NE,54,1.0,2.0,67,0.00,,OVC029,0.00,VWS V14.01,2013-01-28 06:35:00,
2013-01-28 01:36:00,41.4,31.6,30.42,NE,54,1.0,2.0,68,0.00,,OVC029,0.00,VWS V14.01,2013-01-28 06:36:00,
2013-01-28 01:37:00,41.4,31.6,30.42,ENE,64,2.0,2.0,68,0.00,,OVC029,0.00,VWS V14.01,2013-01-28 06:37:00,
2013-01-28 01:38:00,41.4,31.6,30.42,ENE,63,0.0,2.0,68,0.00,,OVC029,0.00,VWS V14.01,2013-01-28 06:38:00,
2013-01-28 01:39:00,41.4,31.6,30.43,ENE,64,1.0,2.0,68,0.00,,SCT031,0.00,VWS V14.01,2013-01-28 06:39:00,
2013-01-28 01:40:00,41.4,31.6,30.43,ENE,64,0.0,2.0,68,0.00,,OVC029,0.00,VWS V14.01,2013-01-28 06:40:00,
2013-01-28 01:41:00,41.4,31.6,30.43,ENE,63,0.0,2.0,68,0.00,,OVC029,0.00,VWS V14.01,2013-01-28 06:41:00,
2013-01-28 01:42:00,41.4,31.6,30.43,ENE,63,1.0,2.0,68,0.00,,OVC029,0.00,VWS V14.01,2013-01-28 06:42:00,
2013-01-28 01:43:00,41.4,31.6,30.43,NE,43,1.0,2.0,68,0.00,,OVC029,0.00,VWS V14.01,2013-01-28 06:43:00,
2013-01-28 01:44:00,41.4,31.6,30.43,ENE,62,0.0,2.0,68,0.00,,BKN031,0.00,VWS V14.01,2013-01-28 06:44:00,
2013-01-28 01:45:00,41.4,31.6,30.43,ENE,62,0.0,2.0,68,0.00,,OVC029,0.00,VWS V14.01,2013-01-28 06:45:00,
2013-01-28 01:46:00,41.4,31.6,30.43,ENE,63,0.0,2.0,68,0.00,,OVC029,0.00,VWS V14.01,2013-01-28 06:46:00,
2013-01-28 01:47:00,41.4,31.6,30.42,NE,54,2.0,2.0,68,0.00,,OVC029,0.00,VWS V14.01,2013-01-28 06:47:00,
2013-01-28 01:49:00,41.4,31.6,30.42,NE,54,0.0,2.0,68,0.00,,BKN031,0.00,VWS V14.01,2013-01-28 06:49:00,
2013-01-28 01:50:00,41.4,31.6,30.42,NE,53,0.0,2.0,68,0.00,,OVC029,0.00,VWS V14.01,2013-01-28 06:50:00,
2013-01-28 01:51:00,41.4,31.6,30.41,NE,54,0.0,2.0,68,0.00,,OVC029,0.00,VWS V14.01,2013-01-28 06:51:00,
2013-01-28 01:52:00,41.4,32.0,30.41,NE,54,0.0,2.0,69,0.00,,OVC029,0.00,VWS V14.01,2013-01-28 06:52:00,
2013-01-28 01:53:00,41.4,32.0,30.41,NE,54,0.0,2.0,69,0.00,,OVC029,0.00,VWS V14.01,2013-01-28 06:53:00,
2013-01-28 01:54:00,41.4,32.0,30.41,NE,54,0.0,2.0,69,0.00,,BKN031,0.00,VWS V14.01,2013-01-28 06:54:00,
2013-01-28 01:55:00,41.4,32.0,30.41,NE,54,0.0,2.0,69,0.00,,OVC029,0.00,VWS V14.01,2013-01-28 06:55:00,
2013-01-28 01:56:00,41.4,32.0,30.41,NE,53,0.0,2.0,69,0.00,,OVC029,0.00,VWS V14.01,2013-01-28 06:56:00,
2013-01-28 01:57:00,41.4,32.0,30.41,NE,54,0.0,2.0,69,0.00,,OVC029,0.00,VWS V14.01,2013-01-28 06:57:00,
2013-01-28 01:58:00,41.4,32.0,30.41,NE,54,0.0,2.0,69,0.00,,OVC029,0.00,VWS V14.01,2013-01-28 06:58:00,
2013-01-28 01:59:00,41.3,31.9,30.41,NE,54,0.0,2.0,69,0.00,,BKN031,0.00,VWS V14.01,2013-01-28 06:59:00,
2013-01-28 02:00:00,41.3,31.9,30.41,NE,54,0.0,2.0,69,0.00,,OVC029,0.00,VWS V14.01,2013-01-28 07:00:00,
2013-01-28 02:01:00,41.2,31.8,30.41,NE,54,0.0,2.0,69,0.00,,OVC029,0.00,VWS V14.01,2013-01-28 07:01:00,
2013-01-28 02:02:00,41.2,31.8,30.41,NE,54,0.0,2.0,69,0.00,,OVC029,0.00,VWS V14.01,2013-01-28 07:02:00,
2013-01-28 02:03:00,41.1,31.7,30.41,NE,53,0.0,2.0,69,0.00,,OVC029,0.00,VWS V14.01,2013-01-28 07:03:00,
2013-01-28 02:04:00,41.1,31.7,30.41,NE,54,0.0,2.0,69,0.00,,OVC031,0.00,VWS V14.01,2013-01-28 07:04:00,
2013-01-28 02:05:00,41.1,31.7,30.41,NE,54,0.0,2.0,69,0.00,,OVC029,0.00,VWS V14.01,2013-01-28 07:05:00,
2013-01-28 02:06:00,41.0,31.6,30.41,NE,54,0.0,2.0,69,0.00,,OVC029,0.00,VWS V14.01,2013-01-28 07:06:00,
2013-01-28 02:07:00,41.0,31.6,30.41,NE,54,0.0,2.0,69,0.00,,OVC029,0.00,VWS V14.01,2013-01-28 07:07:00,
2013-01-28 02:08:00,41.0,31.6,30.41,NE,54,0.0,2.0,69,0.00,,OVC029,0.00,VWS V14.01,2013-01-28 07:08:00,
2013-01-28 02:09:00,41.0,32.0,30.42,NE,53,0.0,2.0,70,0.00,,OVC031,0.00,VWS V14.01,2013-01-28 07:09:00,
2013-01-28 02:10:00,41.0,32.0,30.42,NE,53,0.0,2.0,70,0.00,,OVC029,0.00,VWS V14.01,2013-01-28 07:10:00,
2013-01-28 02:11:00,40.9,31.9,30.42,NE,54,0.0,2.0,70,0.00,,OVC029,0.00,VWS V14.01,2013-01-28 07:11:00,
2013-01-28 02:12:00,40.9,31.9,30.41,NE,54,1.0,2.0,70,0.00,,OVC029,0.00,VWS V14.01,2013-01-28 07:12:00,
2013-01-28 02:13:00,40.9,31.9,30.42,NE,54,0.0,2.0,70,0.00,,OVC029,0.00,VWS V14.01,2013-01-28 07:13:00,
2013-01-28 02:14:00,40.9,31.9,30.41,NE,51,2.0,2.0,70,0.00,,OVC031,0.00,VWS V14.01,2013-01-28 07:14:00,
2013-01-28 02:15:00,40.9,31.9,30.41,NE,51,1.0,2.0,70,0.00,,OVC029,0.00,VWS V14.01,2013-01-28 07:15:00,
2013-01-28 02:16:00,40.9,31.9,30.41,NE,51,0.0,2.0,70,0.00,,OVC029,0.00,VWS V14.01,2013-01-28 07:16:00,
2013-01-28 02:17:00,41.0,32.0,30.41,NE,51,0.0,2.0,70,0.00,,OVC029,0.00,VWS V14.01,2013-01-28 07:17:00,
2013-01-28 02:18:00,41.0,32.0,30.41,NE,51,0.0,2.0,70,0.00,,OVC029,0.00,VWS V14.01,2013-01-28 07:18:00,
2013-01-28 02:19:00,41.0,32.0,30.41,NE,51,0.0,2.0,70,0.00,,OVC031,0.00,VWS V14.01,2013-01-28 07:19:00,
2013-01-28 02:20:00,41.0,32.0,30.41,NE,51,0.0,2.0,70,0.00,,OVC029,0.00,VWS V14.01,2013-01-28 07:20:00,
2013-01-28 02:21:00,41.0,32.0,30.42,NE,51,0.0,2.0,70,0.00,,OVC029,0.00,VWS V14.01,2013-01-28 07:21:00,
2013-01-28 02:22:00,41.0,32.0,30.42,NE,51,0.0,2.0,70,0.00,,OVC029,0.00,VWS V14.01,2013-01-28 07:22:00,
2013-01-28 02:23:00,41.0,32.0,30.42,NE,51,0.0,2.0,70,0.00,,OVC029,0.00,VWS V14.01,2013-01-28 07:23:00,
2013-01-28 02:24:00,41.1,32.1,30.42,NE,51,0.0,2.0,70,0.00,,OVC029,0.00,VWS V14.01,2013-01-28 07:24:00,
2013-01-28 02:25:00,41.1,32.1,30.42,NE,51,0.0,2.0,70,0.00,,OVC029,0.00,VWS V14.01,2013-01-28 07:25:00,
2013-01-28 02:26:00,41.1,31.7,30.42,NE,51,1.0,2.0,69,0.00,,OVC029,0.00,VWS V14.01,2013-01-28 07:26:00,
2013-01-28 02:27:00,41.2,31.8,30.42,ENE,57,2.0,2.0,69,0.00,,OVC029,0.00,VWS V14.01,2013-01-28 07:27:00,
2013-01-28 02:28:00,41.2,31.8,30.42,ENE,57,0.0,2.0,69,0.00,,OVC029,0.00,VWS V14.01,2013-01-28 07:28:00,
2013-01-28 02:29:00,41.2,31.8,30.42,ENE,57,1.0,2.0,69,0.00,,OVC029,0.00,VWS V14.01,2013-01-28 07:29:00,
2013-01-28 02:30:00,41.3,31.9,30.42,NE,56,1.0,2.0,69,0.00,,OVC029,0.00,VWS V14.01,2013-01-28 07:30:00,
2013-01-28 02:31:00,41.3,31.9,30.42,NE,56,0.0,2.0,69,0.00,,OVC029,0.00,VWS V14.01,2013-01-28 07:31:00,
2013-01-28 02:32:00,41.3,31.9,30.42,ENE,57,0.0,2.0,69,0.00,,OVC029,0.00,VWS V14.01,2013-01-28 07:32:00,
2013-01-28 02:33:00,41.3,31.9,30.42,NE,56,1.0,2.0,69,0.00,,OVC029,0.00,VWS V14.01,2013-01-28 07:33:00,
2013-01-28 02:34:00,41.3,31.9,30.42,NE,56,1.0,2.0,69,0.00,,OVC029,0.00,VWS V14.01,2013-01-28 07:34:00,
2013-01-28 02:35:00,41.3,31.9,30.42,NE,56,0.0,2.0,69,0.00,,OVC029,0.00,VWS V14.01,2013-01-28 07:35:00,
2013-01-28 02:36:00,41.3,31.9,30.42,NE,56,1.0,2.0,69,0.00,,OVC029,0.00,VWS V14.01,2013-01-28 07:36:00,
2013-01-28 02:37:00,41.3,31.9,30.42,NE,56,1.0,2.0,69,0.00,,OVC029,0.00,VWS V14.01,2013-01-28 07:37:00,
2013-01-28 02:38:00,41.3,31.9,30.42,NE,56,1.0,2.0,69,0.00,,OVC029,0.00,VWS V14.01,2013-01-28 07:38:00,
2013-01-28 02:39:00,41.4,32.0,30.42,NE,56,2.0,2.0,69,0.00,,OVC029,0.00,VWS V14.01,2013-01-28 07:39:00,
2013-01-28 02:40:00,41.3,31.9,30.42,NE,54,1.0,2.0,69,0.00,,OVC029,0.00,VWS V14.01,2013-01-28 07:40:00,
2013-01-28 02:41:00,41.4,32.0,30.42,NE,54,1.0,2.0,69,0.00,,OVC029,0.00,VWS V14.01,2013-01-28 07:41:00,
2013-01-28 02:42:00,41.4,32.0,30.42,NE,54,1.0,2.0,69,0.00,,OVC029,0.00,VWS V14.01,2013-01-28 07:42:00,
2013-01-28 02:43:00,41.4,32.0,30.42,NE,56,1.0,2.0,69,0.00,,OVC029,0.00,VWS V14.01,2013-01-28 07:43:00,
2013-01-28 02:44:00,41.4,32.0,30.42,NE,56,1.0,2.0,69,0.00,,OVC029,0.00,VWS V14.01,2013-01-28 07:44:00,
2013-01-28 02:45:00,41.4,32.0,30.42,NE,56,0.0,2.0,69,0.00,,OVC029,0.00,VWS V14.01,2013-01-28 07:45:00,
2013-01-28 02:46:00,41.4,32.0,30.42,ENE,57,0.0,2.0,69,0.00,,OVC029,0.00,VWS V14.01,2013-01-28 07:46:00,
2013-01-28 02:47:00,41.4,32.0,30.42,NE,56,0.0,2.0,69,0.00,,OVC029,0.00,VWS V14.01,2013-01-28 07:47:00,
2013-01-28 02:48:00,41.4,32.0,30.42,ENE,57,0.0,2.0,69,0.00,,OVC029,0.00,VWS V14.01,2013-01-28 07:48:00,
2013-01-28 02:49:00,41.3,31.9,30.42,NE,56,0.0,2.0,69,0.00,,OVC029,0.00,VWS V14.01,2013-01-28 07:49:00,
2013-01-28 02:50:00,41.3,31.9,30.42,NE,56,2.0,2.0,69,0.00,,OVC029,0.00,VWS V14.01,2013-01-28 07:50:00,
2013-01-28 02:51:00,41.4,32.0,30.42,NE,55,2.0,2.0,69,0.00,,OVC029,0.00,VWS V14.01,2013-01-28 07:51:00,
2013-01-28 02:52:00,41.4,32.0,30.42,ENE,57,1.0,2.0,69,0.00,,OVC029,0.00,VWS V14.01,2013-01-28 07:52:00,
2013-01-28 02:53:00,41.4,32.0,30.42,NE,56,0.0,2.0,69,0.00,,OVC029,0.00,VWS V14.01,2013-01-28 07:53:00,
2013-01-28 02:54:00,41.4,32.0,30.42,NE,56,0.0,2.0,69,0.00,,OVC029,0.00,VWS V14.01,2013-01-28 07:54:00,
2013-01-28 02:55:00,41.4,32.0,30.42,NE,56,0.0,2.0,69,0.00,,OVC029,0.00,VWS V14.01,2013-01-28 07:55:00,
2013-01-28 02:56:00,41.4,32.0,30.42,NE,56,0.0,2.0,69,0.00,,OVC029,0.00,VWS V14.01,2013-01-28 07:56:00,
2013-01-28 02:57:00,41.4,32.0,30.42,ENE,57,0.0,2.0,69,0.00,,OVC029,0.00,VWS V14.01,2013-01-28 07:57:00,
2013-01-28 02:58:00,41.4,32.0,30.42,NE,56,0.0,2.0,69,0.00,,OVC029,0.00,VWS V14.01,2013-01-28 07:58:00,
2013-01-28 02:59:00,41.5,32.1,30.42,NE,56,1.0,2.0,69,0.00,,OVC029,0.00,VWS V14.01,2013-01-28 07:59:00,
2013-01-28 03:00:00,41.5,32.1,30.42,NE,56,1.0,2.0,69,0.00,,OVC029,0.00,VWS V14.01,2013-01-28 08:00:00,
2013-01-28 03:01:00,41.5,32.1,30.42,NE,56,1.0,2.0,69,0.00,,OVC029,0.00,VWS V14.01,2013-01-28 08:01:00,
2013-01-28 03:02:00,41.5,32.1,30.42,NE,56,0.0,2.0,69,0.00,,OVC029,0.00,VWS V14.01,2013-01-28 08:02:00,
2013-01-28 03:03:00,41.5,32.1,30.43,NE,56,1.0,2.0,69,0.00,,OVC029,0.00,VWS V14.01,2013-01-28 08:03:00,
2013-01-28 03:04:00,41.5,32.1,30.43,NE,56,1.0,2.0,69,0.00,,OVC029,0.00,VWS V14.01,2013-01-28 08:04:00,
2013-01-28 03:05:00,41.5,32.1,30.43,NE,56,1.0,2.0,69,0.00,,OVC029,0.00,VWS V14.01,2013-01-28 08:05:00,
2013-01-28 03:14:00,41.7,32.3,30.43,NNE,22,0.0,1.0,69,0.00,,OVC029,0.00,VWS V14.01,2013-01-28 08:14:00,
2013-01-28 03:19:00,41.6,32.2,30.43,NNE,13,0.0,1.0,69,0.00,,OVC029,0.00,VWS V14.01,2013-01-28 08:19:00,
2013-01-28 03:24:00,41.7,32.3,30.44,NE,50,0.0,1.0,69,0.00,,OVC029,0.00,VWS V14.01,2013-01-28 08:24:00,
2013-01-28 03:29:00,41.7,32.3,30.43,North,3,1.0,1.0,69,0.00,,OVC029,0.00,VWS V14.01,2013-01-28 08:29:00,
2013-01-28 03:34:00,41.7,32.3,30.43,North,6,0.0,1.0,69,0.00,,OVC029,0.00,VWS V14.01,2013-01-28 08:34:00,
2013-01-28 03:39:00,41.7,32.3,30.43,NE,54,2.0,2.0,69,0.00,,OVC029,0.00,VWS V14.01,2013-01-28 08:39:00,
2013-01-28 03:44:00,41.8,32.4,30.42,NE,53,2.0,2.0,69,0.00,,OVC022,0.00,VWS V14.01,2013-01-28 08:44:00,
2013-01-28 03:49:00,41.8,32.4,30.42,NE,47,2.0,2.0,69,0.00,,OVC022,0.00,VWS V14.01,2013-01-28 08:49:00,
2013-01-28 03:54:00,41.7,32.3,30.42,NE,51,0.0,1.0,69,0.00,,OVC022,0.00,VWS V14.01,2013-01-28 08:54:00,
2013-01-28 03:59:00,41.7,32.3,30.42,NE,41,2.0,2.0,69,0.00,,OVC022,0.00,VWS V14.01,2013-01-28 08:59:00,
2013-01-28 04:04:00,41.7,32.7,30.41,NE,46,0.0,1.0,70,0.00,,OVC020,0.00,VWS V14.01,2013-01-28 09:04:00,
2013-01-28 04:09:00,41.7,32.7,30.41,SE,127,0.0,1.0,70,0.00,,OVC020,0.00,VWS V14.01,2013-01-28 09:09:00,
2013-01-28 04:14:00,41.7,32.7,30.41,SE,127,0.0,1.0,70,0.00,,OVC020,0.00,VWS V14.01,2013-01-28 09:14:00,
2013-01-28 04:19:00,41.7,32.7,30.40,SE,127,0.0,1.0,70,0.00,,OVC020,0.00,VWS V14.01,2013-01-28 09:19:00,
2013-01-28 04:24:00,41.7,32.7,30.39,SE,127,0.0,1.0,70,0.00,,OVC020,0.00,VWS V14.01,2013-01-28 09:24:00,
2013-01-28 04:29:00,41.7,32.7,30.39,East,87,1.0,1.0,70,0.00,,OVC020,0.00,VWS V14.01,2013-01-28 09:29:00,
2013-01-28 04:35:00,41.7,32.7,30.40,NE,49,2.0,2.0,70,0.00,,OVC020,0.00,VWS V14.01,2013-01-28 09:35:00,
2013-01-28 04:40:00,41.8,32.8,30.39,NE,51,0.0,1.0,70,0.00,,OVC020,0.00,VWS V14.01,2013-01-28 09:40:00,
2013-01-28 04:45:00,41.8,32.8,30.40,ENE,69,2.0,2.0,70,0.00,,OVC018,0.00,VWS V14.01,2013-01-28 09:45:00,
2013-01-28 04:50:00,41.9,32.8,30.40,ENE,58,0.0,1.0,70,0.00,,OVC018,0.00,VWS V14.01,2013-01-28 09:50:00,
2013-01-28 04:55:00,41.9,32.8,30.40,NE,56,0.0,1.0,70,0.00,,OVC018,0.00,VWS V14.01,2013-01-28 09:55:00,
2013-01-28 05:00:00,41.9,32.8,30.39,NE,56,0.0,1.0,70,0.00,,OVC018,0.00,VWS V14.01,2013-01-28 10:00:00,
2013-01-28 05:05:00,41.9,32.8,30.40,NE,48,1.0,1.0,70,0.00,,OVC016,0.00,VWS V14.01,2013-01-28 10:05:00,
2013-01-28 05:10:00,41.9,32.8,30.39,ESE,118,0.0,1.0,70,0.00,,OVC016,0.00,VWS V14.01,2013-01-28 10:10:00,
2013-01-28 05:15:00,41.9,32.8,30.40,NE,50,1.0,1.0,70,0.00,,OVC016,0.00,VWS V14.01,2013-01-28 10:15:00,
2013-01-28 05:20:00,41.9,32.8,30.40,ENE,63,1.0,1.0,70,0.00,,OVC014,0.00,VWS V14.01,2013-01-28 10:20:00,
2013-01-28 05:25:00,41.9,32.8,30.40,ENE,63,1.0,1.0,70,0.00,,OVC014,0.00,VWS V14.01,2013-01-28 10:25:00,
2013-01-28 05:30:00,41.9,32.8,30.40,ENE,60,1.0,1.0,70,0.00,,OVC014,0.00,VWS V14.01,2013-01-28 10:30:00,
2013-01-28 05:35:00,41.9,32.8,30.41,NE,51,0.0,1.0,70,0.00,,OVC014,0.00,VWS V14.01,2013-01-28 10:35:00,
2013-01-28 05:40:00,42.0,32.9,30.41,NE,50,1.0,1.0,70,0.00,,OVC014,0.00,VWS V14.01,2013-01-28 10:40:00,
2013-01-28 05:45:00,42.0,32.9,30.41,ENE,64,0.0,1.0,70,0.00,,OVC014,0.00,VWS V14.01,2013-01-28 10:45:00,
2013-01-28 05:50:00,41.9,32.8,30.41,NE,56,1.0,1.0,70,0.00,,OVC014,0.00,VWS V14.01,2013-01-28 10:50:00,
2013-01-28 05:55:00,41.9,32.8,30.40,NE,46,1.0,1.0,70,0.00,,OVC014,0.00,VWS V14.01,2013-01-28 10:55:00,
2013-01-28 06:00:00,41.9,33.2,30.41,ENE,78,1.0,1.0,71,0.00,,OVC014,0.00,VWS V14.01,2013-01-28 11:00:00,
2013-01-28 06:05:00,41.9,33.2,30.41,NE,56,2.0,2.0,71,0.00,,OVC014,0.00,VWS V14.01,2013-01-28 11:05:00,
2013-01-28 06:10:00,41.8,33.1,30.41,NE,45,0.0,1.0,71,0.00,,OVC014,0.00,VWS V14.01,2013-01-28 11:10:00,
2013-01-28 06:15:00,41.8,33.1,30.41,ENE,66,1.0,1.0,71,0.00,,OVC014,0.00,VWS V14.01,2013-01-28 11:15:00,
2013-01-28 06:20:00,41.8,33.1,30.41,NE,41,1.0,1.0,71,0.00,,OVC014,0.00,VWS V14.01,2013-01-28 11:20:00,
2013-01-28 06:25:00,41.8,33.1,30.42,NNW,335,0.0,1.0,71,0.00,,OVC014,0.00,VWS V14.01,2013-01-28 11:25:00,
2013-01-28 06:30:00,41.7,33.0,30.42,ENE,67,0.0,1.0,71,0.00,,OVC014,0.00,VWS V14.01,2013-01-28 11:30:00,
2013-01-28 06:35:00,41.7,33.0,30.42,NE,51,1.0,1.0,71,0.00,,OVC014,0.00,VWS V14.01,2013-01-28 11:35:00,
2013-01-28 06:40:00,41.7,33.0,30.42,NE,52,0.0,1.0,71,0.00,,OVC012,0.00,VWS V14.01,2013-01-28 11:40:00,
2013-01-28 06:45:00,41.7,33.0,30.42,ENE,64,2.0,2.0,71,0.00,,OVC012,0.00,VWS V14.01,2013-01-28 11:45:00,
2013-01-28 06:50:00,41.6,32.9,30.42,ENE,63,1.0,1.0,71,0.00,,OVC012,0.00,VWS V14.01,2013-01-28 11:50:00,
2013-01-28 06:55:00,41.6,32.9,30.42,ENE,58,0.0,1.0,71,0.00,,OVC012,0.00,VWS V14.01,2013-01-28 11:55:00,
2013-01-28 07:00:00,41.6,32.9,30.42,ENE,58,1.0,1.0,71,0.00,,OVC012,0.00,VWS V14.01,2013-01-28 12:00:00,
2013-01-28 07:05:00,41.6,32.9,30.42,NE,50,0.0,1.0,71,0.00,,OVC012,0.00,VWS V14.01,2013-01-28 12:05:00,
2013-01-28 07:10:00,41.6,32.9,30.42,NE,48,1.0,1.0,71,0.00,,OVC012,0.00,VWS V14.01,2013-01-28 12:10:00,
2013-01-28 07:16:00,41.6,32.9,30.42,NE,53,0.0,1.0,71,0.00,,OVC012,0.00,VWS V14.01,2013-01-28 12:16:00,
2013-01-28 07:21:00,41.6,32.9,30.42,NE,50,1.0,1.0,71,0.00,,OVC012,0.00,VWS V14.01,2013-01-28 12:21:00,
2013-01-28 07:26:00,41.6,32.9,30.42,NE,49,2.0,2.0,71,0.00,,OVC012,0.00,VWS V14.01,2013-01-28 12:26:00,
2013-01-28 07:31:00,41.6,32.9,30.42,NE,50,0.0,1.0,71,0.00,,OVC012,0.00,VWS V14.01,2013-01-28 12:31:00,
2013-01-28 07:36:00,41.6,33.3,30.42,ENE,65,0.0,1.0,72,0.00,,OVC012,0.00,VWS V14.01,2013-01-28 12:36:00,
2013-01-28 07:41:00,41.6,33.3,30.42,ENE,62,0.0,1.0,72,0.00,,OVC012,0.00,VWS V14.01,2013-01-28 12:41:00,
2013-01-28 07:46:00,41.6,33.6,30.42,ENE,59,1.0,1.0,73,0.00,,OVC012,0.00,VWS V14.01,2013-01-28 12:46:00,
2013-01-28 07:51:00,41.6,33.6,30.42,ENE,58,0.0,1.0,73,0.00,,OVC012,0.00,VWS V14.01,2013-01-28 12:51:00,
2013-01-28 07:56:00,41.6,33.6,30.43,NE,51,1.0,1.0,73,0.00,,OVC012,0.00,VWS V14.01,2013-01-28 12:56:00,
2013-01-28 08:01:00,41.6,33.6,30.43,NE,51,2.0,2.0,73,0.00,,OVC012,0.00,VWS V14.01,2013-01-28 13:01:00,
2013-01-28 08:06:00,41.6,33.9,30.42,NE,55,0.0,1.0,74,0.00,,OVC012,0.00,VWS V14.01,2013-01-28 13:06:00,
2013-01-28 08:11:00,41.6,34.3,30.42,NE,53,1.0,1.0,75,0.00,,OVC012,0.00,VWS V14.01,2013-01-28 13:11:00,
2013-01-28 08:16:00,41.6,34.3,30.43,NE,44,1.0,1.0,75,0.00,,OVC012,0.00,VWS V14.01,2013-01-28 13:16:00,
2013-01-28 08:21:00,41.7,34.4,30.43,NE,53,0.0,1.0,75,0.00,,OVC012,0.00,VWS V14.01,2013-01-28 13:21:00,
2013-01-28 08:26:00,41.6,33.9,30.43,ENE,58,3.0,3.0,74,0.00,,OVC012,0.00,VWS V14.01,2013-01-28 13:26:00,
2013-01-28 08:31:00,41.7,34.4,30.43,NE,45,0.0,1.0,75,0.00,,OVC012,0.00,VWS V14.01,2013-01-28 13:31:00,
2013-01-28 08:36:00,41.7,34.4,30.43,NE,46,1.0,1.0,75,0.00,,OVC012,0.00,VWS V14.01,2013-01-28 13:36:00,
2013-01-28 08:41:00,41.7,34.4,30.43,NE,49,0.0,1.0,75,0.00,,OVC012,0.00,VWS V14.01,2013-01-28 13:41:00,
2013-01-28 08:46:00,41.8,34.8,30.43,ENE,61,0.0,1.0,76,0.00,,OVC012,0.00,VWS V14.01,2013-01-28 13:46:00,
2013-01-28 08:51:00,41.8,34.8,30.43,SE,135,0.0,1.0,76,0.00,,OVC012,0.00,VWS V14.01,2013-01-28 13:51:00,
2013-01-28 08:56:00,41.9,35.2,30.43,ENE,77,0.0,1.0,77,0.00,,OVC012,0.00,VWS V14.01,2013-01-28 13:56:00,
2013-01-28 09:01:00,42.1,35.4,30.43,ENE,77,0.0,1.0,77,0.00,,OVC012,0.00,VWS V14.01,2013-01-28 14:01:00,
2013-01-28 09:06:00,42.2,35.5,30.43,ENE,77,0.0,1.0,77,0.00,,OVC012,0.00,VWS V14.01,2013-01-28 14:06:00,
2013-01-28 09:11:00,42.3,35.6,30.43,NE,39,0.0,1.0,77,0.00,,OVC012,0.00,VWS V14.01,2013-01-28 14:11:00,
2013-01-28 09:16:00,42.5,35.8,30.43,NE,41,0.0,1.0,77,0.00,,OVC012,0.00,VWS V14.01,2013-01-28 14:16:00,
2013-01-28 09:21:00,42.4,36.0,30.43,ENE,58,1.0,1.0,78,0.00,,OVC012,0.00,VWS V14.01,2013-01-28 14:21:00,
2013-01-28 09:26:00,42.4,36.0,30.43,SSE,160,0.0,1.0,78,0.00,,OVC012,0.00,VWS V14.01,2013-01-28 14:26:00,
2013-01-28 09:31:00,42.4,36.0,30.44,East,79,0.0,1.0,78,0.00,,OVC012,0.00,VWS V14.01,2013-01-28 14:31:00,
2013-01-28 09:36:00,42.6,36.5,30.44,East,79,1.0,1.0,79,0.00,,OVC012,0.00,VWS V14.01,2013-01-28 14:36:00,
2013-01-28 09:41:00,42.7,36.7,30.44,East,88,1.0,1.0,79,0.00,,OVC012,0.00,VWS V14.01,2013-01-28 14:41:00,
2013-01-28 09:46:00,42.8,36.8,30.43,ESE,114,0.0,1.0,79,0.00,,OVC012,0.00,VWS V14.01,2013-01-28 14:46:00,
2013-01-28 09:51:00,42.8,36.8,30.43,SW,219,0.0,1.0,79,0.00,,OVC012,0.00,VWS V14.01,2013-01-28 14:51:00,
2013-01-28 09:56:00,42.8,36.4,30.43,NE,45,2.0,2.0,78,0.00,,OVC012,0.00,VWS V14.01,2013-01-28 14:56:00,
2013-01-28 10:01:00,42.8,36.8,30.43,NE,52,0.0,1.0,79,0.00,,OVC012,0.00,VWS V14.01,2013-01-28 15:01:00,
2013-01-28 10:06:00,43.0,37.3,30.43,ENE,58,0.0,1.0,80,0.00,,OVC012,0.00,VWS V14.01,2013-01-28 15:06:00,
2013-01-28 10:11:00,43.4,38.0,30.43,ESE,110,1.0,1.0,81,0.00,,OVC012,0.00,VWS V14.01,2013-01-28 15:11:00,
2013-01-28 10:16:00,43.6,37.8,30.43,ESE,105,0.0,1.0,80,0.00,,OVC012,0.00,VWS V14.01,2013-01-28 15:16:00,
2013-01-28 10:21:00,43.6,37.8,30.43,ESE,102,2.0,2.0,80,0.00,,OVC012,0.00,VWS V14.01,2013-01-28 15:21:00,
2013-01-28 10:26:00,43.6,37.8,30.43,ESE,106,0.0,1.0,80,0.00,,OVC012,0.00,VWS V14.01,2013-01-28 15:26:00,
2013-01-28 10:31:00,43.9,37.8,30.43,NE,48,1.0,1.0,79,0.00,,OVC012,0.00,VWS V14.01,2013-01-28 15:31:00,
2013-01-28 10:36:00,44.1,38.0,30.42,SE,132,0.0,1.0,79,0.00,,OVC012,0.00,VWS V14.01,2013-01-28 15:36:00,
2013-01-28 10:41:00,44.6,37.8,30.42,ESE,115,0.0,1.0,77,0.00,,OVC012,0.00,VWS V14.01,2013-01-28 15:41:00,
2013-01-28 10:46:00,44.8,38.0,30.43,SE,142,3.0,3.0,77,0.00,,OVC012,0.00,VWS V14.01,2013-01-28 15:46:00,
2013-01-28 10:51:00,44.9,37.8,30.42,SSE,149,0.0,1.0,76,0.00,,OVC012,0.00,VWS V14.01,2013-01-28 15:51:00,
2013-01-28 10:56:00,45.1,38.0,30.42,SE,133,1.0,1.0,76,0.00,,OVC012,0.00,VWS V14.01,2013-01-28 15:56:00,
2013-01-28 11:01:00,45.1,38.0,30.42,ENE,63,0.0,1.0,76,0.00,,OVC012,0.00,VWS V14.01,2013-01-28 16:01:00,
2013-01-28 11:06:00,45.3,37.9,30.41,ENE,65,0.0,1.0,75,0.00,,OVC012,0.00,VWS V14.01,2013-01-28 16:06:00,
2013-01-28 11:11:00,45.8,38.3,30.41,ENE,60,2.0,2.0,75,0.00,,OVC012,0.00,VWS V14.01,2013-01-28 16:11:00,
2013-01-28 11:16:00,45.8,38.3,30.42,ESE,103,2.0,2.0,75,0.00,,OVC012,0.00,VWS V14.01,2013-01-28 16:16:00,
2013-01-28 11:21:00,45.7,38.2,30.41,NE,55,0.0,1.0,75,0.00,,OVC010,0.00,VWS V14.01,2013-01-28 16:21:00,
2013-01-28 11:26:00,45.4,38.3,30.41,ESE,114,1.0,1.0,76,0.00,,OVC010,0.00,VWS V14.01,2013-01-28 16:26:00,
2013-01-28 11:31:00,45.4,38.6,30.41,ENE,75,2.0,2.0,77,0.00,,OVC010,0.00,VWS V14.01,2013-01-28 16:31:00,
2013-01-28 11:36:00,45.4,38.6,30.41,ENE,61,0.0,1.0,77,0.00,,OVC010,0.00,VWS V14.01,2013-01-28 16:36:00,
2013-01-28 11:41:00,45.8,39.0,30.41,NE,51,2.0,2.0,77,0.00,,OVC010,0.00,VWS V14.01,2013-01-28 16:41:00,
2013-01-28 11:46:00,45.9,39.1,30.41,ESE,103,0.0,1.0,77,0.00,,OVC010,0.00,VWS V14.01,2013-01-28 16:46:00,
2013-01-28 11:51:00,46.0,38.9,30.41,SW,221,0.0,1.0,76,0.00,,OVC010,0.00,VWS V14.01,2013-01-28 16:51:00,
2013-01-28 11:56:00,46.2,39.1,30.41,South,179,0.0,1.0,76,0.00,,OVC010,0.00,VWS V14.01,2013-01-28 16:56:00,
2013-01-28 12:01:00,46.3,38.8,30.41,SSE,152,0.0,1.0,75,0.00,,OVC012,0.00,VWS V14.01,2013-01-28 17:01:00,
2013-01-28 12:06:00,46.4,39.3,30.40,SE,135,0.0,1.0,76,0.00,,OVC012,0.00,VWS V14.01,2013-01-28 17:06:00,
2013-01-28 12:11:00,46.8,39.3,30.40,NE,47,2.0,2.0,75,0.00,,OVC012,0.00,VWS V14.01,2013-01-28 17:11:00,
2013-01-28 12:16:00,47.0,39.2,30.40,SE,142,1.0,1.0,74,0.00,,OVC012,0.00,VWS V14.01,2013-01-28 17:16:00,
2013-01-28 12:21:00,47.2,39.0,30.40,SSE,148,0.0,1.0,73,0.00,,OVC012,0.00,VWS V14.01,2013-01-28 17:21:00,
2013-01-28 12:26:00,47.3,39.1,30.39,SSE,155,0.0,1.0,73,0.00,,OVC012,0.00,VWS V14.01,2013-01-28 17:26:00,
2013-01-28 12:31:00,47.5,40.0,30.38,SE,141,1.0,1.0,75,0.00,,OVC012,0.00,VWS V14.01,2013-01-28 17:31:00,
2013-01-28 12:36:00,47.7,40.2,30.38,SE,146,1.0,1.0,75,0.00,,OVC012,0.00,VWS V14.01,2013-01-28 17:36:00,
2013-01-28 12:41:00,48.0,39.8,30.38,East,94,0.0,1.0,73,0.00,,OVC012,0.00,VWS V14.01,2013-01-28 17:41:00,
2013-01-28 12:46:00,48.3,40.1,30.38,SE,132,0.0,1.0,73,0.00,,OVC012,0.00,VWS V14.01,2013-01-28 17:46:00,
2013-01-28 12:51:00,48.1,40.2,30.37,NE,41,0.0,1.0,74,0.00,,OVC012,0.00,VWS V14.01,2013-01-28 17:51:00,
2013-01-28 12:56:00,48.2,40.3,30.37,ESE,109,0.0,1.0,74,0.00,,OVC012,0.00,VWS V14.01,2013-01-28 17:56:00,
2013-01-28 13:01:00,48.4,40.2,30.37,NE,53,0.0,1.0,73,0.00,,OVC012,0.00,VWS V14.01,2013-01-28 18:01:00,
2013-01-28 13:06:00,48.4,40.5,30.36,NE,46,0.0,1.0,74,0.00,,OVC012,0.00,VWS V14.01,2013-01-28 18:06:00,
2013-01-28 13:11:00,48.7,40.8,30.36,SSE,155,1.0,1.0,74,0.00,,OVC012,0.00,VWS V14.01,2013-01-28 18:11:00,
2013-01-28 13:16:00,49.0,41.1,30.36,NE,46,1.0,1.0,74,0.00,,OVC012,0.00,VWS V14.01,2013-01-28 18:16:00,
2013-01-28 13:21:00,49.2,40.9,30.36,NE,44,0.0,1.0,73,0.00,,OVC012,0.00,VWS V14.01,2013-01-28 18:21:00,
2013-01-28 13:26:00,49.3,40.7,30.35,NE,44,0.0,1.0,72,0.00,,OVC012,0.00,VWS V14.01,2013-01-28 18:26:00,
2013-01-28 13:31:00,49.1,40.5,30.35,ENE,62,0.0,1.0,72,0.00,,OVC012,0.00,VWS V14.01,2013-01-28 18:31:00,
2013-01-28 13:36:00,49.2,41.6,30.35,SE,141,1.0,1.0,75,0.00,,OVC012,0.00,VWS V14.01,2013-01-28 18:36:00,
2013-01-28 13:41:00,49.6,41.7,30.34,SSE,153,0.0,1.0,74,0.00,,OVC012,0.00,VWS V14.01,2013-01-28 18:41:00,
2013-01-28 13:46:00,49.8,41.9,30.34,SSE,153,1.0,1.0,74,0.00,,OVC012,0.00,VWS V14.01,2013-01-28 18:46:00,
2013-01-28 13:51:00,49.9,42.0,30.34,ENE,68,0.0,1.0,74,0.00,,OVC012,0.00,VWS V14.01,2013-01-28 18:51:00,
2013-01-28 13:56:00,50.0,42.0,30.33,NE,51,0.0,1.0,74,0.00,,OVC012,0.00,VWS V14.01,2013-01-28 18:56:00,
2013-01-28 14:01:00,50.1,42.2,30.33,SE,141,1.0,1.0,74,0.00,,OVC012,0.00,VWS V14.01,2013-01-28 19:01:00,
2013-01-28 14:06:00,50.2,41.9,30.33,SE,134,0.0,1.0,73,0.00,,OVC012,0.00,VWS V14.01,2013-01-28 19:06:00,
2013-01-28 14:11:00,50.3,42.0,30.33,SSW,205,0.0,1.0,73,0.00,,OVC012,0.00,VWS V14.01,2013-01-28 19:11:00,
2013-01-28 14:16:00,50.5,42.5,30.33,SSE,153,1.0,1.0,74,0.00,,OVC012,0.00,VWS V14.01,2013-01-28 19:16:00,
2013-01-28 14:21:00,50.7,42.7,30.32,ENE,62,0.0,1.0,74,0.00,,OVC012,0.00,VWS V14.01,2013-01-28 19:21:00,
2013-01-28 14:26:00,50.7,43.1,30.32,SSE,156,0.0,1.0,75,0.00,,OVC012,0.00,VWS V14.01,2013-01-28 19:26:00,
2013-01-28 14:32:00,50.9,43.3,30.32,SSE,157,0.0,1.0,75,0.00,,OVC012,0.00,VWS V14.01,2013-01-28 19:32:00,
2013-01-28 14:37:00,51.1,43.5,30.32,East,96,0.0,1.0,75,0.00,,OVC012,0.00,VWS V14.01,2013-01-28 19:37:00,
2013-01-28 14:42:00,51.4,43.4,30.32,ESE,110,0.0,1.0,74,0.00,,OVC012,0.00,VWS V14.01,2013-01-28 19:42:00,
2013-01-28 14:47:00,51.5,43.1,30.31,NE,50,0.0,1.0,73,0.00,,OVC012,0.00,VWS V14.01,2013-01-28 19:47:00,
2013-01-28 14:52:00,51.6,43.2,30.31,ESE,115,1.0,1.0,73,0.00,,OVC012,0.00,VWS V14.01,2013-01-28 19:52:00,
2013-01-28 14:57:00,51.6,43.6,30.31,NE,50,0.0,1.0,74,0.00,,OVC012,0.00,VWS V14.01,2013-01-28 19:57:00,
2013-01-28 15:02:00,51.7,43.3,30.31,SE,134,0.0,1.0,73,0.00,,OVC014,0.00,VWS V14.01,2013-01-28 20:02:00,
2013-01-28 15:07:00,51.9,43.5,30.31,SSE,153,0.0,1.0,73,0.00,,OVC014,0.00,VWS V14.01,2013-01-28 20:07:00,
2013-01-28 15:12:00,52.1,43.4,30.31,SSE,155,0.0,1.0,72,0.00,,OVC014,0.00,VWS V14.01,2013-01-28 20:12:00,
2013-01-28 15:17:00,52.1,43.4,30.31,NE,45,0.0,1.0,72,0.00,,OVC014,0.00,VWS V14.01,2013-01-28 20:17:00,
2013-01-28 15:22:00,52.1,43.7,30.30,NE,42,0.0,1.0,73,0.00,,OVC014,0.00,VWS V14.01,2013-01-28 20:22:00,
2013-01-28 15:27:00,52.2,43.8,30.31,SSE,155,0.0,1.0,73,0.00,,OVC014,0.00,VWS V14.01,2013-01-28 20:27:00,
2013-01-28 15:32:00,52.4,43.7,30.31,SSE,155,0.0,1.0,72,0.00,,OVC014,0.00,VWS V14.01,2013-01-28 20:32:00,
2013-01-28 15:37:00,52.3,43.9,30.31,SSE,155,0.0,1.0,73,0.00,,OVC014,0.00,VWS V14.01,2013-01-28 20:37:00,
2013-01-28 15:42:00,52.4,44.0,30.31,SSE,155,0.0,1.0,73,0.00,,OVC014,0.00,VWS V14.01,2013-01-28 20:42:00,
2013-01-28 15:47:00,52.4,44.4,30.31,ESE,121,0.0,1.0,74,0.00,,OVC014,0.00,VWS V14.01,2013-01-28 20:47:00,
2013-01-28 15:52:00,52.4,44.7,30.31,ESE,107,1.0,1.0,75,0.00,,OVC014,0.00,VWS V14.01,2013-01-28 20:52:00,
2013-01-28 15:57:00,52.3,44.6,30.31,SE,126,0.0,1.0,75,0.00,,OVC014,0.00,VWS V14.01,2013-01-28 20:57:00,
2013-01-28 16:02:00,52.3,45.0,30.31,SE,126,0.0,1.0,76,0.00,,OVC014,0.00,VWS V14.01,2013-01-28 21:02:00,
2013-01-28 16:07:00,52.5,44.5,30.31,SE,126,0.0,1.0,74,0.00,,OVC014,0.00,VWS V14.01,2013-01-28 21:07:00,
2013-01-28 16:12:00,52.5,44.5,30.31,ENE,63,0.0,1.0,74,0.00,,OVC014,0.00,VWS V14.01,2013-01-28 21:12:00,
2013-01-28 16:17:00,52.5,44.5,30.31,NNE,19,0.0,1.0,74,0.00,,OVC014,0.00,VWS V14.01,2013-01-28 21:17:00,
2013-01-28 16:22:00,52.4,44.4,30.31,NNW,330,0.0,1.0,74,0.00,,OVC014,0.00,VWS V14.01,2013-01-28 21:22:00,
2013-01-28 16:27:00,52.6,44.9,30.31,NNW,330,0.0,1.0,75,0.00,,OVC014,0.00,VWS V14.01,2013-01-28 21:27:00,
2013-01-28 16:32:00,52.6,44.6,30.31,North,357,0.0,1.0,74,0.00,,OVC014,0.00,VWS V14.01,2013-01-28 21:32:00,
2013-01-28 16:37:00,52.3,44.3,30.31,North,357,1.0,1.0,74,0.00,,OVC014,0.00,VWS V14.01,2013-01-28 21:37:00,
2013-01-28 16:42:00,52.2,44.5,30.31,North,357,0.0,1.0,75,0.00,,OVC016,0.00,VWS V14.01,2013-01-28 21:42:00,
2013-01-28 16:47:00,52.1,44.4,30.31,NNE,33,0.0,1.0,75,0.00,,OVC016,0.00,VWS V14.01,2013-01-28 21:47:00,
2013-01-28 16:52:00,52.1,44.8,30.31,NNE,32,0.0,1.0,76,0.00,,OVC016,0.00,VWS V14.01,2013-01-28 21:52:00,
2013-01-28 16:57:00,52.2,44.9,30.31,NNE,33,0.0,1.0,76,0.00,,OVC016,0.00,VWS V14.01,2013-01-28 21:57:00,
2013-01-28 17:02:00,52.1,44.8,30.31,NNE,32,0.0,1.0,76,0.00,,OVC018,0.00,VWS V14.01,2013-01-28 22:02:00,
2013-01-28 17:07:00,52.1,44.8,30.31,NNE,21,0.0,1.0,76,0.00,,OVC018,0.00,VWS V14.01,2013-01-28 22:07:00,
2013-01-28 17:12:00,52.1,45.1,30.31,NNE,13,0.0,1.0,77,0.00,,OVC018,0.00,VWS V14.01,2013-01-28 22:12:00,
2013-01-28 17:17:00,52.3,45.0,30.30,NE,51,0.0,1.0,76,0.00,,OVC018,0.00,VWS V14.01,2013-01-28 22:17:00,
2013-01-28 17:22:00,52.3,44.6,30.30,North,4,1.0,1.0,75,0.00,,OVC018,0.00,VWS V14.01,2013-01-28 22:22:00,
2013-01-28 17:27:00,52.2,44.2,30.31,North,357,1.0,1.0,74,0.00,,OVC018,0.00,VWS V14.01,2013-01-28 22:27:00,
2013-01-28 17:32:00,51.8,43.8,30.30,NE,53,1.0,1.0,74,0.00,,OVC018,0.00,VWS V14.01,2013-01-28 22:32:00,
2013-01-28 17:37:00,51.4,43.4,30.31,NE,49,1.0,1.0,74,0.00,,OVC018,0.00,VWS V14.01,2013-01-28 22:37:00,
2013-01-28 17:42:00,51.0,43.4,30.31,NE,43,1.0,1.0,75,0.00,,SCT020,0.00,VWS V14.01,2013-01-28 22:42:00,
2013-01-28 17:47:00,50.5,43.2,30.31,NE,40,0.0,1.0,76,0.00,,SCT020,0.00,VWS V14.01,2013-01-28 22:47:00,
2013-01-28 17:53:00,50.0,43.1,30.31,NE,40,0.0,1.0,77,0.00,,SCT020,0.00,VWS V14.01,2013-01-28 22:53:00,
2013-01-28 17:58:00,49.5,42.6,30.31,NE,40,0.0,1.0,77,0.00,,SCT020,0.00,VWS V14.01,2013-01-28 22:58:00,
2013-01-28 18:03:00,49.0,42.5,30.31,NE,40,0.0,1.0,78,0.00,,CLR,0.00,VWS V14.01,2013-01-28 23:03:00,
2013-01-28 18:08:00,48.4,42.2,30.31,NE,40,0.0,1.0,79,0.00,,CLR,0.00,VWS V14.01,2013-01-28 23:08:00,
2013-01-28 18:13:00,48.0,42.5,30.31,NE,40,0.0,1.0,81,0.00,,CLR,0.00,VWS V14.01,2013-01-28 23:13:00,
2013-01-28 18:18:00,47.6,42.1,30.31,NE,40,0.0,1.0,81,0.00,,CLR,0.00,VWS V14.01,2013-01-28 23:18:00,
2013-01-28 18:23:00,47.1,41.9,30.31,NE,39,0.0,1.0,82,0.00,,CLR,0.00,VWS V14.01,2013-01-28 23:23:00,
2013-01-28 18:28:00,46.6,41.7,30.31,NE,40,0.0,1.0,83,0.00,,CLR,0.00,VWS V14.01,2013-01-28 23:28:00,
2013-01-28 18:33:00,46.2,41.6,30.31,NE,39,0.0,1.0,84,0.00,,CLR,0.00,VWS V14.01,2013-01-28 23:33:00,
2013-01-28 18:38:00,45.7,41.2,30.32,NE,40,0.0,1.0,84,0.00,,CLR,0.00,VWS V14.01,2013-01-28 23:38:00,
2013-01-28 18:43:00,45.2,41.0,30.32,NE,40,0.0,1.0,85,0.00,,CLR,0.00,VWS V14.01,2013-01-28 23:43:00,
2013-01-28 18:48:00,44.8,40.9,30.31,NE,40,0.0,1.0,86,0.00,,CLR,0.00,VWS V14.01,2013-01-28 23:48:00,
2013-01-28 18:53:00,44.7,41.4,30.32,NE,40,0.0,1.0,88,0.00,,CLR,0.00,VWS V14.01,2013-01-28 23:53:00,
2013-01-28 18:58:00,44.6,41.3,30.31,NE,40,0.0,1.0,88,0.00,,CLR,0.00,VWS V14.01,2013-01-28 23:58:00,
2013-01-28 19:03:00,44.2,40.6,30.31,NE,40,0.0,1.0,87,0.00,,CLR,0.00,VWS V14.01,2013-01-29 00:03:00,
2013-01-28 19:08:00,43.7,40.1,30.31,NE,39,0.0,1.0,87,0.00,,CLR,0.00,VWS V14.01,2013-01-29 00:08:00,
2013-01-28 19:13:00,43.2,40.2,30.32,NE,39,0.0,1.0,89,0.00,,CLR,0.00,VWS V14.01,2013-01-29 00:13:00,
2013-01-28 19:18:00,42.9,40.2,30.32,NE,39,0.0,1.0,90,0.00,,CLR,0.00,VWS V14.01,2013-01-29 00:18:00,
2013-01-28 19:23:00,42.8,40.4,30.32,NE,40,0.0,1.0,91,0.00,,CLR,0.00,VWS V14.01,2013-01-29 00:23:00,
2013-01-28 19:28:00,42.5,40.1,30.32,NE,40,0.0,1.0,91,0.00,,CLR,0.00,VWS V14.01,2013-01-29 00:28:00,
2013-01-28 19:33:00,42.3,39.9,30.32,NE,40,0.0,1.0,91,0.00,,CLR,0.00,VWS V14.01,2013-01-29 00:33:00,
2013-01-28 19:38:00,42.5,40.6,30.32,NE,39,0.0,1.0,93,0.00,,CLR,0.00,VWS V14.01,2013-01-29 00:38:00,
2013-01-28 19:43:00,42.6,40.4,30.31,NE,39,0.0,1.0,92,0.00,,CLR,0.00,VWS V14.01,2013-01-29 00:43:00,
2013-01-28 19:48:00,42.6,40.4,30.31,NE,40,0.0,1.0,92,0.00,,CLR,0.00,VWS V14.01,2013-01-29 00:48:00,
2013-01-28 19:53:00,42.3,39.9,30.31,NE,40,0.0,1.0,91,0.00,,CLR,0.00,VWS V14.01,2013-01-29 00:53:00,
2013-01-28 19:58:00,42.1,40.0,30.31,NE,40,0.0,1.0,92,0.00,,CLR,0.00,VWS V14.01,2013-01-29 00:58:00,
2013-01-28 20:03:00,42.0,40.1,30.31,NE,40,0.0,1.0,93,0.00,,CLR,0.00,VWS V14.01,2013-01-29 01:03:00,
2013-01-28 20:09:00,41.9,39.8,30.31,NE,39,0.0,1.0,92,0.00,,CLR,0.00,VWS V14.01,2013-01-29 01:09:00,
2013-01-28 20:14:00,41.7,39.8,30.31,NE,40,0.0,1.0,93,0.00,,CLR,0.00,VWS V14.01,2013-01-29 01:14:00,
2013-01-28 20:19:00,41.6,39.5,30.31,NE,39,0.0,1.0,92,0.00,,CLR,0.00,VWS V14.01,2013-01-29 01:19:00,
2013-01-28 20:24:00,41.4,39.5,30.31,NE,40,0.0,1.0,93,0.00,,CLR,0.00,VWS V14.01,2013-01-29 01:24:00,
2013-01-28 20:29:00,41.4,39.5,30.31,NE,40,0.0,1.0,93,0.00,,CLR,0.00,VWS V14.01,2013-01-29 01:29:00,
2013-01-28 20:34:00,41.4,39.8,30.31,NE,40,0.0,1.0,94,0.00,,CLR,0.00,VWS V14.01,2013-01-29 01:34:00,
2013-01-28 20:39:00,41.3,39.4,30.31,NE,40,0.0,1.0,93,0.00,,CLR,0.00,VWS V14.01,2013-01-29 01:39:00,
2013-01-28 20:44:00,41.1,39.2,30.31,NE,40,0.0,1.0,93,0.00,,SCT040,0.00,VWS V14.01,2013-01-29 01:44:00,
2013-01-28 20:49:00,41.0,39.4,30.31,NE,40,0.0,1.0,94,0.00,,SCT040,0.00,VWS V14.01,2013-01-29 01:49:00,
2013-01-28 20:54:00,40.8,39.2,30.31,NE,39,0.0,1.0,94,0.00,,SCT040,0.00,VWS V14.01,2013-01-29 01:54:00,
2013-01-28 20:59:00,40.5,38.6,30.31,NE,40,0.0,1.0,93,0.00,,SCT040,0.00,VWS V14.01,2013-01-29 01:59:00,
2013-01-28 21:04:00,40.4,38.8,30.31,NE,40,0.0,1.0,94,0.00,,CLR,0.00,VWS V14.01,2013-01-29 02:04:00,
2013-01-28 21:09:00,40.4,39.1,30.31,NE,40,0.0,1.0,95,0.00,,CLR,0.00,VWS V14.01,2013-01-29 02:09:00,
2013-01-28 21:14:00,40.4,39.1,30.31,NE,39,0.0,1.0,95,0.00,,CLR,0.00,VWS V14.01,2013-01-29 02:14:00,
2013-01-28 21:19:00,40.2,38.9,30.31,NE,40,0.0,1.0,95,0.00,,CLR,0.00,VWS V14.01,2013-01-29 02:19:00,
2013-01-28 21:24:00,40.3,39.0,30.30,NE,40,0.0,1.0,95,0.00,,CLR,0.00,VWS V14.01,2013-01-29 02:24:00,
2013-01-28 21:29:00,40.1,38.8,30.30,NE,40,0.0,1.0,95,0.00,,CLR,0.00,VWS V14.01,2013-01-29 02:29:00,
2013-01-28 21:34:00,40.0,38.7,30.30,NE,40,0.0,1.0,95,0.00,,CLR,0.00,VWS V14.01,2013-01-29 02:34:00,
2013-01-28 21:39:00,39.8,38.5,30.30,NE,40,0.0,1.0,95,0.00,,CLR,0.00,VWS V14.01,2013-01-29 02:39:00,
2013-01-28 21:44:00,39.8,38.5,30.30,NE,39,0.0,1.0,95,0.00,,CLR,0.00,VWS V14.01,2013-01-29 02:44:00,
2013-01-28 21:49:00,39.8,38.8,30.30,NE,39,0.0,1.0,96,0.00,,CLR,0.00,VWS V14.01,2013-01-29 02:49:00,
2013-01-28 21:54:00,39.9,38.8,30.30,NE,39,0.0,1.0,96,0.00,,CLR,0.00,VWS V14.01,2013-01-29 02:54:00,
2013-01-28 21:59:00,39.9,38.8,30.30,NE,39,0.0,1.0,96,0.00,,CLR,0.00,VWS V14.01,2013-01-29 02:59:00,
2013-01-28 22:04:00,39.9,38.8,30.30,NE,40,0.0,1.0,96,0.00,,SCT040,0.00,VWS V14.01,2013-01-29 03:04:00,
2013-01-28 22:09:00,40.0,39.0,30.30,NE,40,0.0,1.0,96,0.00,,SCT040,0.00,VWS V14.01,2013-01-29 03:09:00,
2013-01-28 22:14:00,39.9,38.8,30.30,NE,40,0.0,1.0,96,0.00,,SCT040,0.00,VWS V14.01,2013-01-29 03:14:00,
2013-01-28 22:19:00,39.8,38.8,30.30,NE,39,0.0,1.0,96,0.00,,SCT040,0.00,VWS V14.01,2013-01-29 03:19:00,
2013-01-28 22:24:00,39.8,38.8,30.30,NE,40,0.0,1.0,96,0.00,,SCT038,0.00,VWS V14.01,2013-01-29 03:24:00,
2013-01-28 22:29:00,39.9,39.1,30.30,NE,40,0.0,1.0,97,0.00,,SCT038,0.00,VWS V14.01,2013-01-29 03:29:00,
2013-01-28 22:34:00,39.8,39.0,30.30,NE,40,0.0,1.0,97,0.00,,SCT038,0.00,VWS V14.01,2013-01-29 03:34:00,
2013-01-28 22:39:00,40.1,39.3,30.30,NE,40,0.0,1.0,97,0.00,,SCT038,0.00,VWS V14.01,2013-01-29 03:39:00,
2013-01-28 22:44:00,40.3,39.5,30.30,NE,40,0.0,1.0,97,0.00,,SCT042,0.00,VWS V14.01,2013-01-29 03:44:00,
2013-01-28 22:49:00,40.4,39.6,30.29,NE,39,0.0,1.0,97,0.00,,SCT042,0.00,VWS V14.01,2013-01-29 03:49:00,
2013-01-28 22:54:00,40.3,39.5,30.29,NE,40,0.0,1.0,97,0.00,,SCT042,0.00,VWS V14.01,2013-01-29 03:54:00,
2013-01-28 22:59:00,40.0,39.2,30.29,NE,39,0.0,1.0,97,0.00,,SCT042,0.00,VWS V14.01,2013-01-29 03:59:00,
2013-01-28 23:04:00,39.9,39.1,30.29,NE,40,0.0,1.0,97,0.00,,SCT042,0.00,VWS V14.01,2013-01-29 04:04:00,
2013-01-28 23:09:00,39.6,38.6,30.29,NE,40,0.0,1.0,96,0.00,,SCT042,0.00,VWS V14.01,2013-01-29 04:09:00,
2013-01-28 23:14:00,39.5,38.7,30.29,NE,40,0.0,1.0,97,0.00,,SCT042,0.00,VWS V14.01,2013-01-29 04:14:00,
2013-01-28 23:19:00,39.4,38.6,30.29,NE,40,0.0,1.0,97,0.00,,SCT042,0.00,VWS V14.01,2013-01-29 04:19:00,
2013-01-28 23:24:00,39.4,38.6,30.29,NE,40,0.0,1.0,97,0.00,,CLR,0.00,VWS V14.01,2013-01-29 04:24:00,
2013-01-28 23:29:00,39.3,38.5,30.29,NE,40,0.0,1.0,97,0.00,,CLR,0.00,VWS V14.01,2013-01-29 04:29:00,
2013-01-28 23:34:00,39.4,38.6,30.29,NE,40,0.0,1.0,97,0.00,,CLR,0.00,VWS V14.01,2013-01-29 04:34:00,
2013-01-28 23:39:00,39.8,39.0,30.29,NE,40,0.0,1.0,97,0.00,,CLR,0.00,VWS V14.01,2013-01-29 04:39:00,
2013-01-28 23:44:00,39.8,39.0,30.29,NE,40,0.0,1.0,97,0.00,,CLR,0.00,VWS V14.01,2013-01-29 04:44:00,
2013-01-28 23:49:00,39.6,38.8,30.29,NE,40,0.0,1.0,97,0.00,,CLR,0.00,VWS V14.01,2013-01-29 04:49:00,
2013-01-28 23:54:00,39.3,38.5,30.29,NE,40,0.0,1.0,97,0.00,,CLR,0.00,VWS V14.01,2013-01-29 04:54:00,
2013-01-28 23:59:00,39.0,38.2,30.29,NE,39,0.0,1.0,97,0.00,,CLR,0.00,VWS V14.01,2013-01-29 04:59:00,